KMMT/MMT METAR and TAF weather

Enter ICAO airport designator
Station Type Date Time Source
KMMT METAR 2021/05/14 11:56 UTC NOAA

KMMT 141156Z 00000KT 10SM CLR 12/10 A3026 RMK AO2A SLP250 T01200101 10120 20069 52018 $


Station Type Date Time Source
KMMT Decoded METAR 2021/05/14 11:56 UTC NOAA

McEntire Air National Guard Weather Facility Base, SC, United States (KMMT) 33-55N 080-48W
May 14, 2021 - 07:56 AM EDT / 2021.05.14 1156 UTC
Wind: Calm:0
Visibility: 10 mile(s):0
Sky conditions: clear
Temperature: 53.6 F (12.0 C)
Dew Point: 50.2 F (10.1 C)
Relative Humidity: 88%
Pressure (altimeter): 30.26 in. Hg (1024 hPa)
Pressure tendency: 0.05 inches (1.8 hPa) higher than three hours ago
ob: KMMT 141156Z 00000KT 10SM CLR 12/10 A3026 RMK AO2A SLP250 T01200101 10120 20069 52018
cycle: 12

Station Type Date Time Source
KMMT TAF 2021/05/14 07:06 UTC NOAA

TAF KMMT 140700Z 1407/1513 VRB06KT 9999 FEW060 QNH3020INS
BECMG 1415/1416 05010G15KT 9999 BKN080 QNH3023INS
BECMG 1423/1424 VRB06KT 9999 SCT070 QNH3024INS TX21/1419Z TN08/1410Z

Example: see airport list